createdAt,value
2023-05-11T00:01:48.473Z,3.80
2023-05-11T00:04:17.070Z,3.90
2023-05-11T00:06:46.690Z,3.63
2023-05-11T00:09:14.798Z,3.63
2023-05-11T00:11:42.974Z,4.28
2023-05-11T00:14:11.093Z,4.10
2023-05-11T00:16:39.201Z,3.70
2023-05-11T00:19:07.389Z,4.07
2023-05-11T00:21:35.582Z,3.50
2023-05-11T00:24:05.409Z,3.65
2023-05-11T00:26:33.533Z,3.67
2023-05-11T00:29:01.639Z,3.63
2023-05-11T00:31:30.657Z,4.10
2023-05-11T00:33:58.899Z,3.58
2023-05-11T00:36:27.433Z,4.13
2023-05-11T00:38:55.585Z,3.83
2023-05-11T00:41:25.138Z,3.65
2023-05-11T00:43:53.249Z,3.78
2023-05-11T00:46:22.348Z,4.03
2023-05-11T00:48:50.510Z,4.75
2023-05-11T00:51:19.296Z,5.07
2023-05-11T00:53:47.455Z,5.20
2023-05-11T00:56:16.117Z,4.88
2023-05-11T00:58:45.717Z,4.82
2023-05-11T01:01:14.895Z,5.32
2023-05-11T01:03:43.124Z,4.90
2023-05-11T01:06:15.247Z,5.20
2023-05-11T01:08:49.084Z,4.70
2023-05-11T01:11:22.588Z,5.13
2023-05-11T01:13:54.523Z,4.72
2023-05-11T01:16:25.027Z,5.40
2023-05-11T01:18:57.584Z,4.80
2023-05-11T01:21:27.392Z,4.90
2023-05-11T01:24:23.167Z,5.17
2023-05-11T01:27:04.519Z,5.37
2023-05-11T01:29:50.546Z,4.95
2023-05-11T01:32:23.338Z,5.07
2023-05-11T01:35:00.912Z,4.95
2023-05-11T01:37:32.615Z,5.13
2023-05-11T01:40:04.887Z,5.20
2023-05-11T01:42:49.479Z,5.93
2023-05-11T01:45:19.084Z,5.40
2023-05-11T01:47:51.899Z,5.30
2023-05-11T01:50:22.258Z,4.90
2023-05-11T01:52:51.751Z,5.20
2023-05-11T01:55:22.775Z,5.18
2023-05-11T01:57:54.287Z,5.33
2023-05-11T02:00:23.728Z,4.73
2023-05-11T02:02:54.713Z,5.27
2023-05-11T02:05:25.082Z,5.60
2023-05-11T02:07:55.458Z,5.03
2023-05-11T02:10:26.478Z,5.13
2023-05-11T02:12:55.619Z,5.33
2023-05-11T02:15:25.099Z,5.23
2023-05-11T02:17:55.369Z,5.10
2023-05-11T02:20:25.112Z,5.20
2023-05-11T02:22:55.782Z,4.97
2023-05-11T02:25:25.136Z,5.13
2023-05-11T02:27:53.320Z,5.07
2023-05-11T02:30:21.612Z,5.00
2023-05-11T02:32:52.982Z,4.77
2023-05-11T02:35:26.713Z,4.50
2023-05-11T02:37:58.866Z,5.33
2023-05-11T02:40:30.890Z,4.90
2023-05-11T02:43:02.007Z,5.43
2023-05-11T02:45:33.588Z,5.17
2023-05-11T02:48:08.527Z,5.43
2023-05-11T02:50:40.920Z,5.87
2023-05-11T02:53:15.765Z,5.83
2023-05-11T02:55:44.121Z,5.30
2023-05-11T02:58:12.481Z,5.50
2023-05-11T03:00:40.837Z,4.93
2023-05-11T03:03:09.560Z,4.70
2023-05-11T03:05:39.166Z,5.40
2023-05-11T03:08:07.494Z,5.50
2023-05-11T03:10:36.293Z,5.63
2023-05-11T03:13:05.340Z,5.10
2023-05-11T03:15:34.527Z,5.37
2023-05-11T03:18:04.080Z,5.30
2023-05-11T03:20:34.568Z,4.57
2023-05-11T03:23:05.398Z,4.60
2023-05-11T03:25:34.017Z,4.90
2023-05-11T03:28:02.739Z,4.70
2023-05-11T03:30:31.969Z,4.50
2023-05-11T03:33:00.280Z,4.83
2023-05-11T03:35:30.154Z,4.57
2023-05-11T03:37:59.883Z,4.60
2023-05-11T03:40:31.628Z,4.43
2023-05-11T03:43:02.797Z,4.67
2023-05-11T03:45:32.762Z,4.20
2023-05-11T03:48:01.647Z,4.10
2023-05-11T03:50:30.700Z,4.70
2023-05-11T03:52:59.520Z,4.27
2023-05-11T03:55:29.139Z,4.30
2023-05-11T03:57:57.366Z,4.40
2023-05-11T04:00:25.682Z,3.87
2023-05-11T04:02:54.143Z,4.53
2023-05-11T04:05:22.365Z,3.80
2023-05-11T04:07:52.740Z,4.33
2023-05-11T04:10:22.537Z,4.00
2023-05-11T04:12:52.938Z,4.23
2023-05-11T04:15:21.109Z,4.07
2023-05-11T04:17:49.373Z,4.27
2023-05-11T04:20:17.907Z,4.82
2023-05-11T04:22:46.275Z,3.70
2023-05-11T04:25:14.752Z,3.97
2023-05-11T04:27:42.928Z,3.60
2023-05-11T04:30:13.524Z,3.65
2023-05-11T04:32:41.624Z,3.77
2023-05-11T04:35:10.395Z,3.88
2023-05-11T04:37:39.104Z,3.72
2023-05-11T04:40:08.725Z,3.70
2023-05-11T04:42:36.836Z,4.25
2023-05-11T04:45:05.419Z,3.97
2023-05-11T04:47:34.978Z,3.60
2023-05-11T04:50:03.640Z,3.63
2023-05-11T04:52:31.795Z,4.20
2023-05-11T04:54:59.933Z,3.72
2023-05-11T04:57:28.062Z,4.03
2023-05-11T04:59:56.382Z,3.90
2023-05-11T05:02:24.672Z,3.50
2023-05-11T05:04:54.239Z,3.85
2023-05-11T05:07:22.383Z,3.13
2023-05-11T05:09:50.566Z,3.60
2023-05-11T05:12:18.695Z,3.97
2023-05-11T05:14:46.862Z,3.47
2023-05-11T05:17:15.090Z,3.55
2023-05-11T05:19:43.277Z,3.45
2023-05-11T05:22:12.824Z,3.50
2023-05-11T05:24:40.934Z,3.83
2023-05-11T05:27:09.041Z,3.50
2023-05-11T05:29:37.198Z,3.35
2023-05-11T05:32:05.606Z,3.33
2023-05-11T05:34:33.733Z,3.40
2023-05-11T05:37:01.925Z,3.38
2023-05-11T05:39:31.473Z,3.40
2023-05-11T05:41:59.623Z,3.25
2023-05-11T05:44:27.817Z,3.60
2023-05-11T05:46:56.595Z,3.28
2023-05-11T05:49:24.734Z,3.78
2023-05-11T05:51:52.935Z,3.47
2023-05-11T05:54:21.140Z,3.20
2023-05-11T05:56:51.187Z,3.47
2023-05-11T05:59:23.285Z,3.17
2023-05-11T06:01:52.278Z,3.80
2023-05-11T06:04:20.548Z,3.53
2023-05-11T06:06:48.738Z,3.10
2023-05-11T06:09:16.868Z,3.88
2023-05-11T06:11:45.013Z,3.20
2023-05-11T06:14:14.541Z,2.88
2023-05-11T06:16:42.817Z,2.85
2023-05-11T06:19:11.267Z,2.80
2023-05-11T06:21:41.638Z,2.95
2023-05-11T06:24:10.127Z,2.90
2023-05-11T06:26:38.476Z,2.70
2023-05-11T06:29:06.646Z,3.08
2023-05-11T06:31:37.006Z,2.85
2023-05-11T06:34:05.216Z,2.90
2023-05-11T06:36:33.439Z,3.60
2023-05-11T06:39:01.642Z,3.38
2023-05-11T06:41:29.766Z,3.72
2023-05-11T06:43:57.929Z,3.17
2023-05-11T06:46:26.478Z,3.30
2023-05-11T06:48:56.242Z,2.88
2023-05-11T06:51:24.488Z,2.80
2023-05-11T06:53:52.657Z,2.80
2023-05-11T06:56:21.829Z,2.75
2023-05-11T06:58:49.963Z,2.58
2023-05-11T07:01:18.174Z,2.55
2023-05-11T07:03:48.853Z,3.00
2023-05-11T07:06:18.594Z,2.38
2023-05-11T07:08:46.756Z,2.20
2023-05-11T07:11:15.576Z,2.30
2023-05-11T07:13:43.719Z,2.58
2023-05-11T07:16:11.951Z,2.50
2023-05-11T07:18:40.204Z,2.08
2023-05-11T07:21:08.828Z,2.17
2023-05-11T07:23:38.368Z,2.33
2023-05-11T07:26:09.138Z,2.13
2023-05-11T07:28:37.397Z,2.42
2023-05-11T07:31:06.145Z,2.13
2023-05-11T07:33:34.723Z,2.15
2023-05-11T07:36:02.879Z,2.30
2023-05-11T07:38:31.018Z,2.40
2023-05-11T07:41:00.800Z,2.13
2023-05-11T07:43:28.996Z,2.05
2023-05-11T07:45:57.193Z,2.67
2023-05-11T07:48:25.386Z,2.05
2023-05-11T07:50:53.495Z,2.03
2023-05-11T07:53:21.703Z,2.00
2023-05-11T07:55:49.945Z,1.83
2023-05-11T07:58:19.560Z,2.03
2023-05-11T08:00:47.718Z,2.10
2023-05-11T08:03:15.977Z,1.50
2023-05-11T08:05:44.493Z,1.75
2023-05-11T08:08:12.695Z,1.80
2023-05-11T08:10:41.018Z,1.80
2023-05-11T08:13:09.269Z,1.85
2023-05-11T08:15:39.069Z,1.92
2023-05-11T08:18:07.891Z,2.00
2023-05-11T08:20:36.136Z,2.03
2023-05-11T08:23:04.650Z,1.65
2023-05-11T08:25:32.777Z,1.90
2023-05-11T08:28:01.236Z,2.10
2023-05-11T08:30:29.468Z,2.08
2023-05-11T08:32:59.635Z,1.95
2023-05-11T08:35:28.020Z,1.73
2023-05-11T08:37:56.173Z,1.90
2023-05-11T08:40:27.692Z,2.15
2023-05-11T08:42:57.570Z,2.15
2023-05-11T08:45:27.413Z,2.20
2023-05-11T08:47:55.907Z,2.03
2023-05-11T08:50:25.508Z,1.90
2023-05-11T08:52:53.717Z,1.60
2023-05-11T08:55:23.354Z,1.65
2023-05-11T08:57:53.504Z,2.15
2023-05-11T09:00:23.342Z,2.10
2023-05-11T09:02:53.113Z,2.10
2023-05-11T09:05:22.294Z,2.03
2023-05-11T09:07:55.378Z,2.20
2023-05-11T09:10:23.670Z,1.88
2023-05-11T09:12:51.851Z,1.80
2023-05-11T09:15:20.238Z,2.00
2023-05-11T09:17:48.747Z,1.98
2023-05-11T09:20:17.376Z,1.98
2023-05-11T09:22:47.165Z,1.80
2023-05-11T09:25:18.055Z,1.80
2023-05-11T09:27:47.711Z,1.90
2023-05-11T09:32:50.809Z,1.70
2023-05-11T09:35:26.270Z,2.05
2023-05-11T09:38:02.658Z,1.92
2023-05-11T09:40:34.747Z,2.03
2023-05-11T09:43:04.008Z,2.20
2023-05-11T09:45:43.007Z,2.00
2023-05-11T09:48:27.402Z,2.00
2023-05-11T09:51:02.339Z,1.75
2023-05-11T09:53:43.064Z,1.83
2023-05-11T09:56:13.886Z,2.35
2023-05-11T09:58:54.422Z,2.00
2023-05-11T10:01:30.841Z,2.22
2023-05-11T10:04:17.820Z,1.70
2023-05-11T10:06:50.807Z,1.77
2023-05-11T10:09:24.290Z,1.70
2023-05-11T10:11:56.325Z,1.73
2023-05-11T10:14:26.047Z,2.05
2023-05-11T10:16:54.977Z,1.88
2023-05-11T10:19:23.522Z,1.83
2023-05-11T10:21:53.598Z,1.80
2023-05-11T10:24:21.959Z,1.67
2023-05-11T10:26:50.996Z,2.00
2023-05-11T10:29:21.379Z,2.15
2023-05-11T10:31:51.188Z,2.17
2023-05-11T10:34:23.179Z,2.00
2023-05-11T10:36:53.383Z,2.10
2023-05-11T10:39:22.072Z,1.90
2023-05-11T10:42:01.972Z,2.08
2023-05-11T10:45:01.492Z,2.13
2023-05-11T10:47:50.762Z,2.08
2023-05-11T10:50:33.407Z,2.10
2023-05-11T10:53:37.057Z,1.73
2023-05-11T10:56:21.325Z,2.20
2023-05-11T10:59:08.762Z,1.95
2023-05-11T11:01:40.527Z,2.10
2023-05-11T11:04:10.558Z,2.03
2023-05-11T11:06:40.064Z,2.00
2023-05-11T11:09:12.739Z,2.40
2023-05-11T11:11:42.694Z,2.13
2023-05-11T11:14:12.204Z,2.20
2023-05-11T11:16:42.756Z,2.28
2023-05-11T11:19:42.402Z,2.10
2023-05-11T11:22:44.471Z,2.25
2023-05-11T11:25:13.645Z,1.90
2023-05-11T11:28:01.681Z,2.10
2023-05-11T11:30:30.959Z,1.98
2023-05-11T11:33:37.606Z,2.25
2023-05-11T11:36:06.335Z,1.92
2023-05-11T11:38:35.086Z,1.83
2023-05-11T11:41:03.546Z,2.00
2023-05-11T11:43:45.836Z,2.00
2023-05-11T11:46:28.033Z,2.00
2023-05-11T11:49:09.907Z,2.00
2023-05-11T11:51:40.560Z,2.10
2023-05-11T11:54:09.802Z,2.25
2023-05-11T11:56:43.668Z,2.47
2023-05-11T11:59:16.206Z,2.00
2023-05-11T12:01:46.499Z,1.90
2023-05-11T12:04:40.921Z,1.88
2023-05-11T12:07:11.462Z,2.83
2023-05-11T12:09:42.454Z,2.00
2023-05-11T12:12:11.959Z,2.00
2023-05-11T12:14:42.103Z,2.10
2023-05-11T12:17:15.357Z,1.60
2023-05-11T12:19:45.760Z,2.00
2023-05-11T12:22:16.421Z,1.88
2023-05-11T12:24:45.054Z,1.80
2023-05-11T12:27:13.399Z,2.00
2023-05-11T12:29:42.487Z,1.92
2023-05-11T12:32:14.337Z,2.00
2023-05-11T12:34:43.993Z,2.03
2023-05-11T12:37:12.580Z,1.80
2023-05-11T12:39:40.724Z,2.20
2023-05-11T12:42:08.924Z,2.03
2023-05-11T12:44:37.272Z,2.35
2023-05-11T12:47:05.875Z,2.33
2023-05-11T12:49:34.451Z,2.05
2023-05-11T12:52:08.046Z,1.95
2023-05-11T12:54:38.051Z,1.95
2023-05-11T12:57:07.562Z,1.90
2023-05-11T12:59:38.083Z,1.90
2023-05-11T13:02:15.076Z,2.00
2023-05-11T13:04:44.663Z,2.10
2023-05-11T13:07:15.306Z,2.08
2023-05-11T13:09:43.607Z,1.73
2023-05-11T13:12:13.942Z,2.20
2023-05-11T13:14:42.480Z,2.08
2023-05-11T13:17:10.664Z,1.90
2023-05-11T13:19:39.424Z,1.70
2023-05-11T13:22:08.351Z,1.90
2023-05-11T13:24:37.868Z,1.98
2023-05-11T13:27:06.404Z,2.42
2023-05-11T13:29:34.760Z,1.98
2023-05-11T13:32:02.909Z,1.80
2023-05-11T13:34:31.114Z,1.90
2023-05-11T13:36:59.226Z,1.73
2023-05-11T13:39:27.335Z,2.15
2023-05-11T13:41:56.843Z,1.67
2023-05-11T13:44:24.961Z,1.80
2023-05-11T13:46:53.152Z,1.83
2023-05-11T13:49:21.692Z,1.77
2023-05-11T13:51:49.954Z,1.85
2023-05-11T13:54:18.068Z,2.63
2023-05-11T13:56:46.233Z,2.15
2023-05-11T13:59:15.861Z,1.88
2023-05-11T14:01:44.224Z,1.80
2023-05-11T14:04:12.415Z,1.88
2023-05-11T14:06:40.564Z,2.97
2023-05-11T14:09:08.709Z,1.80
2023-05-11T14:11:38.681Z,2.28
2023-05-11T14:14:07.696Z,1.90
2023-05-11T14:16:37.440Z,1.67
2023-05-11T14:19:05.786Z,1.80
2023-05-11T14:21:34.030Z,1.92
2023-05-11T14:24:11.345Z,1.90
2023-05-11T14:26:40.144Z,1.92
2023-05-11T14:29:08.498Z,1.70
2023-05-11T14:31:38.581Z,1.70
2023-05-11T14:34:07.015Z,1.77
2023-05-11T14:36:35.249Z,1.55
2023-05-11T14:39:04.030Z,1.80
2023-05-11T14:41:32.341Z,1.55
2023-05-11T14:44:00.656Z,1.90
2023-05-11T14:46:29.192Z,2.03
2023-05-11T14:48:58.702Z,2.03
2023-05-11T14:51:26.884Z,1.80
2023-05-11T14:53:55.051Z,1.73
2023-05-11T14:56:23.432Z,1.85
2023-05-11T14:58:51.640Z,1.80
2023-05-11T15:01:19.789Z,1.63
2023-05-11T15:03:48.097Z,1.70
2023-05-11T15:06:21.520Z,2.00
2023-05-11T15:08:50.407Z,1.60
2023-05-11T15:11:18.716Z,2.10
2023-05-11T15:13:48.485Z,1.92
2023-05-11T15:16:16.776Z,1.63
2023-05-11T15:18:45.065Z,1.95
2023-05-11T15:21:13.175Z,1.73
2023-05-11T15:23:42.660Z,1.80
2023-05-11T15:26:10.815Z,2.15
2023-05-11T15:28:38.976Z,1.85
2023-05-11T15:31:07.136Z,2.13
2023-05-11T15:33:35.475Z,1.70
2023-05-11T15:36:03.689Z,1.80
2023-05-11T15:38:31.785Z,1.95
2023-05-11T15:41:02.087Z,2.50
2023-05-11T15:43:30.220Z,1.67
2023-05-11T15:45:58.605Z,1.70
2023-05-11T15:48:26.978Z,1.70
2023-05-11T15:50:55.111Z,3.15
2023-05-11T15:53:23.309Z,1.83
2023-05-11T15:55:53.521Z,1.70
2023-05-11T15:58:23.644Z,1.70
2023-05-11T16:00:52.064Z,1.30
2023-05-11T16:03:20.592Z,1.90
2023-05-11T16:05:48.900Z,1.65
2023-05-11T16:08:17.453Z,2.00
2023-05-11T16:10:45.749Z,1.73
2023-05-11T16:13:13.887Z,1.80
2023-05-11T16:15:43.635Z,1.58
2023-05-11T16:18:14.033Z,1.65
2023-05-11T16:20:42.253Z,2.20
2023-05-11T16:23:10.426Z,1.27
2023-05-11T16:25:38.580Z,1.88
2023-05-11T16:28:06.840Z,1.70
2023-05-11T16:30:35.068Z,2.05
2023-05-11T16:33:04.683Z,2.38
2023-05-11T16:35:32.851Z,2.70
2023-05-11T16:38:01.122Z,3.13
2023-05-11T16:40:29.270Z,2.28
2023-05-11T16:42:57.801Z,2.30
2023-05-11T16:45:25.917Z,2.10
2023-05-11T16:47:54.077Z,2.92
2023-05-11T16:50:23.790Z,2.30
2023-05-11T16:52:51.933Z,1.92
2023-05-11T16:55:21.351Z,2.05
2023-05-11T16:57:49.527Z,2.35
2023-05-11T17:00:18.465Z,2.10
2023-05-11T17:02:47.298Z,1.90
2023-05-11T17:05:18.035Z,2.35
2023-05-11T17:07:47.575Z,1.85
2023-05-11T17:10:16.145Z,1.77
2023-05-11T17:12:44.336Z,2.13
2023-05-11T17:15:12.677Z,1.65
2023-05-11T17:17:41.198Z,2.42
2023-05-11T17:20:10.644Z,2.08
2023-05-11T17:22:38.814Z,1.65
2023-05-11T17:25:09.339Z,1.80
2023-05-11T17:27:37.759Z,1.80
2023-05-11T17:30:07.023Z,2.10
2023-05-11T17:32:35.446Z,5.85
2023-05-11T17:35:04.145Z,2.30
2023-05-11T17:37:32.717Z,2.10
2023-05-11T17:40:01.300Z,2.20
2023-05-11T17:42:31.724Z,2.65
2023-05-11T17:44:59.925Z,2.50
2023-05-11T17:47:28.114Z,2.15
2023-05-11T17:49:57.413Z,1.95
2023-05-11T17:52:25.973Z,2.20
2023-05-11T17:54:54.109Z,2.10
2023-05-11T17:57:23.663Z,2.03
2023-05-11T17:59:53.573Z,2.28
2023-05-11T18:02:21.905Z,2.67
2023-05-11T18:04:50.369Z,2.28
2023-05-11T18:07:18.672Z,1.70
2023-05-11T18:09:46.828Z,2.85
2023-05-11T18:12:15.012Z,4.20
2023-05-11T18:14:43.155Z,2.70
2023-05-11T18:17:12.892Z,2.67
2023-05-11T18:19:41.296Z,5.03
2023-05-11T18:22:09.430Z,2.80
2023-05-11T18:24:37.542Z,2.70
2023-05-11T18:27:06.093Z,3.88
2023-05-11T18:29:34.258Z,3.38
2023-05-11T18:32:02.445Z,3.88
2023-05-11T18:34:33.247Z,3.33
2023-05-11T18:37:01.458Z,3.42
2023-05-11T18:39:29.753Z,2.72
2023-05-11T18:42:01.000Z,3.15
2023-05-11T18:44:29.355Z,3.38
2023-05-11T18:46:57.586Z,3.67
2023-05-11T18:49:25.865Z,3.60
2023-05-11T18:51:55.691Z,3.88
2023-05-11T18:54:24.045Z,3.42
2023-05-11T18:56:52.190Z,3.33
2023-05-11T18:59:20.372Z,3.50
2023-05-11T19:01:48.881Z,3.65
2023-05-11T19:04:19.802Z,4.93
2023-05-11T19:06:48.273Z,3.80
2023-05-11T19:09:17.847Z,3.42
2023-05-11T19:11:45.998Z,3.63
2023-05-11T19:14:15.975Z,4.32
2023-05-11T19:16:44.128Z,5.15
2023-05-11T19:19:12.815Z,5.80
2023-05-11T19:21:42.560Z,8.23
2023-05-11T19:24:11.800Z,7.60
2023-05-11T19:26:43.859Z,7.63
2023-05-11T19:29:17.706Z,9.95
2023-05-11T19:31:46.122Z,6.70
2023-05-11T19:34:14.414Z,6.00
2023-05-11T19:36:42.866Z,5.88
2023-05-11T19:39:11.537Z,6.40
2023-05-11T19:41:41.044Z,6.28
2023-05-11T19:44:09.219Z,5.68
2023-05-11T19:46:39.246Z,5.45
2023-05-11T19:49:07.653Z,4.57
2023-05-11T19:51:35.847Z,5.57
2023-05-11T19:54:04.070Z,5.47
2023-05-11T19:56:32.889Z,5.07
2023-05-11T19:59:02.709Z,5.10
2023-05-11T20:01:30.921Z,5.35
2023-05-11T20:03:59.265Z,5.43
2023-05-11T20:06:27.615Z,5.47
2023-05-11T20:08:56.702Z,5.88
2023-05-11T20:11:26.462Z,6.50
2023-05-11T20:13:55.416Z,6.82
2023-05-11T20:16:25.009Z,6.57
2023-05-11T20:18:53.886Z,6.75
2023-05-11T20:21:22.254Z,6.55
2023-05-11T20:23:50.498Z,5.68
2023-05-11T20:26:18.778Z,6.57
2023-05-11T20:28:46.975Z,6.38
2023-05-11T20:31:15.152Z,6.30
2023-05-11T20:36:16.589Z,5.95
2023-05-11T20:38:44.756Z,5.10
2023-05-11T20:41:13.140Z,5.93
2023-05-11T20:43:41.405Z,6.05
2023-05-11T20:46:11.500Z,6.63
2023-05-11T20:48:41.438Z,6.22
2023-05-11T20:51:12.451Z,5.78
2023-05-11T20:53:40.601Z,5.18
2023-05-11T20:56:10.106Z,5.00
2023-05-11T20:58:38.293Z,5.47
2023-05-11T21:01:06.612Z,5.32
2023-05-11T21:03:34.981Z,5.65
2023-05-11T21:06:03.532Z,5.05
2023-05-11T21:08:33.126Z,5.40
2023-05-11T21:11:01.278Z,6.00
2023-05-11T21:13:30.491Z,5.50
2023-05-11T21:15:58.644Z,5.53
2023-05-11T21:18:32.014Z,5.57
2023-05-11T21:21:00.337Z,5.35
2023-05-11T21:23:29.695Z,5.47
2023-05-11T21:26:00.086Z,6.03
2023-05-11T21:28:28.949Z,5.55
2023-05-11T21:30:57.798Z,5.28
2023-05-11T21:33:25.967Z,5.72
2023-05-11T21:35:54.274Z,6.03
2023-05-11T21:38:22.509Z,5.68
2023-05-11T21:40:54.738Z,5.80
2023-05-11T21:43:24.275Z,6.10
2023-05-11T21:45:52.620Z,6.50
2023-05-11T21:48:20.809Z,6.28
2023-05-11T21:50:53.609Z,6.47
2023-05-11T21:53:22.436Z,6.70
2023-05-11T21:55:50.580Z,6.45
2023-05-11T21:58:18.997Z,7.28
2023-05-11T22:00:48.524Z,6.82
2023-05-11T22:03:16.697Z,7.30
2023-05-11T22:05:44.966Z,7.13
2023-05-11T22:08:15.480Z,7.32
2023-05-11T22:10:44.425Z,6.93
2023-05-11T22:13:12.609Z,8.00
2023-05-11T22:15:40.746Z,7.20
2023-05-11T22:18:10.339Z,6.80
2023-05-11T22:20:38.483Z,6.80
2023-05-11T22:23:06.695Z,7.70
2023-05-11T22:25:34.878Z,7.95
2023-05-11T22:28:03.047Z,7.25
2023-05-11T22:30:31.309Z,7.75
2023-05-11T22:32:59.529Z,7.53
2023-05-11T22:35:29.325Z,7.68
2023-05-11T22:37:57.501Z,7.68
2023-05-11T22:40:25.759Z,6.93
2023-05-11T22:42:53.913Z,7.75
2023-05-11T22:45:22.189Z,7.72
2023-05-11T22:47:50.422Z,7.13
2023-05-11T22:50:19.029Z,7.50
2023-05-11T22:52:48.825Z,7.05
2023-05-11T22:55:17.172Z,7.30
2023-05-11T22:57:45.366Z,6.95
2023-05-11T23:00:14.338Z,7.15
2023-05-11T23:02:42.999Z,7.20
2023-05-11T23:05:11.557Z,6.95
2023-05-11T23:07:39.719Z,6.70
2023-05-11T23:10:10.042Z,7.10
2023-05-11T23:12:38.244Z,7.38
2023-05-11T23:15:07.675Z,7.20
2023-05-11T23:17:35.881Z,7.22
2023-05-11T23:20:04.441Z,6.82
2023-05-11T23:22:32.581Z,7.15
2023-05-11T23:25:02.053Z,7.10
2023-05-11T23:27:31.669Z,7.15
2023-05-11T23:29:59.903Z,7.55
2023-05-11T23:32:28.117Z,7.28
2023-05-11T23:34:56.294Z,7.15
2023-05-11T23:37:24.400Z,6.07
2023-05-11T23:39:52.733Z,6.70
2023-05-11T23:42:20.904Z,7.30
2023-05-11T23:44:50.518Z,6.72
2023-05-11T23:47:18.707Z,6.80
2023-05-11T23:49:46.830Z,6.28
2023-05-11T23:52:14.999Z,7.13
2023-05-11T23:54:43.087Z,6.75
2023-05-11T23:57:11.224Z,7.00
2023-05-11T23:59:39.410Z,6.65
